Time;durP1;ratioP1;P1;durP2;ratioP2;P2;SDS_P1;SDS_P2;PMS_P1;PMS_P2;Temp;Humidity;BMP_temperature;BMP_pressure;BME280_temperature;BME280_humidity;BME280_pressure;Samples;Min_cycle;Max_cycle;Signal;HPM_P1;HPM_P2
2022/01/11 00:00:45;;;;;;;24.33;13.05;;;;;;;17.65;51.59;101238.56;4414753;32;20138;-71
2022/01/11 00:03:12;;;;;;;29.73;15.23;;;;;;;17.25;52.65;101240.75;4416559;32;20137;-70
2022/01/11 00:05:46;;;;;;;27.80;14.18;;;;;;;17.53;52.31;101248.06;4414760;32;20062;-70
2022/01/11 00:08:13;;;;;;;27.15;14.10;;;;;;;17.92;51.23;101255.66;4414199;32;20496;-70
2022/01/11 00:10:48;;;;;;;27.52;14.20;;;;;;;17.92;51.10;101257.69;4413188;32;20050;-70
2022/01/11 00:13:16;;;;;;;26.90;14.60;;;;;;;18.16;50.66;101255.75;4418667;32;20116;-70
2022/01/11 00:15:42;;;;;;;24.40;13.55;;;;;;;18.13;50.72;101268.88;4413656;32;20030;-70
2022/01/11 00:18:08;;;;;;;25.05;13.50;;;;;;;18.29;50.09;101276.28;4415849;32;20080;-70
2022/01/11 00:20:35;;;;;;;25.45;13.48;;;;;;;18.34;50.01;101282.13;4414008;32;20451;-70
2022/01/11 00:25:42;;;;;;;23.12;12.98;;;;;;;19.51;47.63;101293.00;3974094;32;15157886;-70
2022/01/11 00:28:09;;;;;;;24.33;13.05;;;;;;;19.51;47.63;101293.00;4429127;32;20151;-70
2022/01/11 00:30:38;;;;;;;21.83;12.27;;;;;;;18.95;47.98;101283.66;4426970;32;20121;-70
2022/01/11 00:33:09;;;;;;;22.62;12.70;;;;;;;18.78;48.48;101294.66;4425930;32;20345;-70
2022/01/11 00:35:43;;;;;;;21.85;12.23;;;;;;;19.12;47.75;101293.41;4426800;32;20091;-70
2022/01/11 00:38:15;;;;;;;22.80;12.57;;;;;;;19.06;47.79;101296.12;4430156;32;20719;-70
2022/01/11 00:40:45;;;;;;;21.42;11.57;;;;;;;19.32;47.26;101300.09;4428797;32;20073;-70
2022/01/11 00:43:11;;;;;;;19.33;10.65;;;;;;;19.41;47.13;101304.97;4427534;32;20045;-70
2022/01/11 00:45:37;;;;;;;19.52;11.05;;;;;;;19.07;47.73;101306.25;4429054;32;20117;-70
2022/01/11 00:48:03;;;;;;;18.10;10.13;;;;;;;18.92;48.11;101298.88;4428343;32;20421;-70
2022/01/11 00:50:30;;;;;;;20.98;11.63;;;;;;;19.55;46.92;101313.56;4428941;32;20084;-70
2022/01/11 00:52:55;;;;;;;19.58;10.65;;;;;;;19.61;46.52;101308.78;4427443;32;20126;-70
2022/01/11 00:55:21;;;;;;;19.52;10.68;;;;;;;19.63;46.34;101309.09;4428731;32;20800;-70
2022/01/11 00:57:47;;;;;;;20.42;10.43;;;;;;;19.56;46.38;101306.59;4426598;32;20029;-70
2022/01/11 01:00:13;;;;;;;17.33;9.98;;;;;;;19.51;46.96;101304.41;4426743;32;20063;-70
2022/01/11 01:02:39;;;;;;;17.48;10.02;;;;;;;19.49;46.72;101306.19;4429389;32;20087;-70
2022/01/11 01:05:09;;;;;;;17.80;10.15;;;;;;;19.00;48.07;101303.75;4427905;32;20465;-70
2022/01/11 01:07:35;;;;;;;16.80;9.52;;;;;;;19.40;47.22;101303.38;4430669;32;20426;-70
2022/01/11 01:10:05;;;;;;;15.35;9.68;;;;;;;19.33;47.45;101309.47;4429267;32;20120;-70
2022/01/11 01:12:31;;;;;;;21.25;10.68;;;;;;;18.99;48.29;101302.16;4428394;32;20021;-70
2022/01/11 01:14:57;;;;;;;17.50;10.23;;;;;;;19.19;47.87;101301.59;4426423;32;20072;-70
2022/01/11 01:17:23;;;;;;;15.98;8.88;;;;;;;19.48;47.25;101311.09;4426785;32;20404;-70
2022/01/11 01:19:49;;;;;;;16.30;9.40;;;;;;;19.52;47.37;101305.97;4424806;32;20032;-70
2022/01/11 01:22:14;;;;;;;17.98;9.57;;;;;;;19.62;47.01;101310.38;4429372;32;20414;-70
2022/01/11 01:24:41;;;;;;;16.30;9.95;;;;;;;19.60;47.09;101312.09;4422996;32;20069;-70
2022/01/11 01:27:07;;;;;;;19.95;10.00;;;;;;;20.15;46.19;101315.34;4428991;32;20092;-70
2022/01/11 01:29:32;;;;;;;16.98;9.40;;;;;;;20.07;45.95;101319.81;4430685;32;20167;-70
2022/01/11 01:32:00;;;;;;;16.80;9.40;;;;;;;20.01;46.07;101322.59;4426326;32;20683;-70
2022/01/11 01:34:26;;;;;;;16.05;8.98;;;;;;;20.08;45.65;101319.34;4427197;32;20077;-70
2022/01/11 01:36:51;;;;;;;17.90;10.15;;;;;;;20.04;45.99;101330.19;4416670;32;20126;-70
2022/01/11 01:39:17;;;;;;;18.50;9.32;;;;;;;19.91;46.24;101334.56;4418203;32;20839;-70
2022/01/11 01:41:45;;;;;;;18.17;10.15;;;;;;;19.87;46.33;101331.91;4419723;32;20057;-70
2022/01/11 01:44:12;;;;;;;15.85;9.27;;;;;;;20.20;46.04;101332.59;4418818;32;20430;-70
2022/01/11 01:46:38;;;;;;;16.02;9.45;;;;;;;19.64;47.09;101344.91;4416713;32;20037;-70
2022/01/11 01:49:04;;;;;;;17.58;9.60;;;;;;;19.94;46.41;101336.47;4417262;32;20104;-70
2022/01/11 01:51:30;;;;;;;19.05;10.15;;;;;;;19.90;46.41;101350.91;4417425;32;20021;-70
2022/01/11 01:53:56;;;;;;;20.58;10.63;;;;;;;19.90;46.46;101348.06;4416089;32;20848;-70
2022/01/11 01:56:23;;;;;;;19.65;10.27;;;;;;;20.12;46.45;101347.72;4417182;32;20061;-70
2022/01/11 01:58:49;;;;;;;19.27;10.93;;;;;;;20.06;46.34;101353.31;4417461;32;20072;-70
2022/01/11 02:01:15;;;;;;;20.83;11.02;;;;;;;19.42;47.55;101350.16;4417645;32;20030;-69
2022/01/11 02:03:43;;;;;;;20.12;11.25;;;;;;;19.49;47.61;101354.72;4415055;32;20073;-70
2022/01/11 02:06:13;;;;;;;22.37;10.90;;;;;;;19.54;47.59;101357.69;4415923;32;20463;-70
2022/01/11 02:08:39;;;;;;;19.37;10.60;;;;;;;19.54;47.56;101357.69;4416969;32;20522;-70
2022/01/11 02:11:07;;;;;;;19.73;10.65;;;;;;;19.19;48.52;101359.47;4414492;32;20591;-70
2022/01/11 02:13:32;;;;;;;18.87;10.30;;;;;;;19.36;47.97;101371.28;4417067;32;20573;-70
2022/01/11 02:15:58;;;;;;;21.45;10.45;;;;;;;18.92;48.65;101361.63;4415137;32;20077;-70
2022/01/11 02:18:26;;;;;;;17.83;9.20;;;;;;;18.98;48.58;101368.25;4416922;32;20398;-70
2022/01/11 02:20:55;;;;;;;16.33;8.50;;;;;;;18.83;49.05;101359.59;4415683;32;20073;-70
2022/01/11 02:23:22;;;;;;;16.80;9.32;;;;;;;18.79;49.38;101375.28;4418626;32;20102;-70
2022/01/11 02:25:48;;;;;;;16.23;7.95;;;;;;;18.64;49.48;101375.19;4416945;32;20622;-70
2022/01/11 02:28:18;;;;;;;18.98;8.45;;;;;;;18.52;49.94;101381.06;4414501;32;20033;-70
2022/01/11 02:30:44;;;;;;;15.55;8.00;;;;;;;18.84;49.30;101383.22;4418662;32;20442;-70
2022/01/11 02:33:24;;;;;;;13.45;7.15;;;;;;;18.69;49.66;101388.00;4416529;32;20122;-70
2022/01/11 02:35:51;;;;;;;13.18;7.15;;;;;;;18.60;49.72;101388.03;4413358;32;20587;-70
2022/01/11 02:38:16;;;;;;;14.98;7.60;;;;;;;18.75;49.58;101392.56;4414526;32;20049;-70
2022/01/11 02:40:43;;;;;;;14.65;7.40;;;;;;;18.64;49.38;101397.19;4416783;32;20549;-69
2022/01/11 02:43:10;;;;;;;13.27;7.40;;;;;;;18.86;49.08;101400.63;4417526;32;20038;-69
2022/01/11 02:45:36;;;;;;;12.18;7.05;;;;;;;18.79;49.19;101400.97;4419134;32;20034;-69
2022/01/11 02:48:02;;;;;;;14.45;7.60;;;;;;;18.91;48.52;101408.53;4411703;32;20069;-69
2022/01/11 02:50:27;;;;;;;12.98;6.97;;;;;;;18.96;48.63;101399.34;4415196;32;20074;-70
2022/01/11 02:52:53;;;;;;;12.07;6.47;;;;;;;18.95;48.62;101409.94;4416804;32;20064;-70
2022/01/11 02:55:19;;;;;;;14.35;7.10;;;;;;;18.93;48.65;101406.00;4413134;32;20148;-70
2022/01/11 02:57:45;;;;;;;15.13;7.12;;;;;;;18.81;48.84;101409.84;4415100;32;20112;-70
2022/01/11 03:00:16;;;;;;;12.90;7.35;;;;;;;18.82;48.98;101412.22;4417590;32;20165;-70
2022/01/11 03:02:43;;;;;;;12.27;6.87;;;;;;;19.09;48.51;101414.97;4417449;32;20168;-68
2022/01/11 03:05:10;;;;;;;11.40;6.80;;;;;;;18.88;49.20;101410.31;4416576;32;20097;-68
2022/01/11 03:07:38;;;;;;;12.68;6.62;;;;;;;19.23;48.57;101422.03;4417322;32;20033;-68
2022/01/11 03:10:16;;;;;;;15.13;6.25;;;;;;;18.95;48.95;101418.50;4415597;32;20140;-68
2022/01/11 03:12:43;;;;;;;10.85;5.93;;;;;;;19.32;47.78;101414.28;4416084;32;20576;-68
2022/01/11 03:15:11;;;;;;;10.00;5.75;;;;;;;19.15;48.14;101420.81;4415430;32;20080;-68
2022/01/11 03:17:38;;;;;;;9.35;5.40;;;;;;;19.30;47.84;101430.31;4416358;32;20109;-68
2022/01/11 03:20:06;;;;;;;10.52;5.82;;;;;;;19.46;47.29;101427.81;4418397;32;20412;-68
2022/01/11 03:22:32;;;;;;;9.05;5.32;;;;;;;19.54;47.14;101428.25;4413326;32;20077;-68
2022/01/11 03:24:58;;;;;;;11.38;5.65;;;;;;;19.25;47.35;101428.88;4415562;32;20135;-68
2022/01/11 03:27:23;;;;;;;8.68;5.10;;;;;;;19.34;47.27;101433.78;4415507;32;20081;-68
2022/01/11 03:29:51;;;;;;;9.85;5.53;;;;;;;19.21;47.51;101442.50;4413904;32;20074;-68
2022/01/11 03:32:19;;;;;;;7.40;4.55;;;;;;;19.40;47.48;101446.91;4417473;32;20038;-68
2022/01/11 03:34:46;;;;;;;7.68;4.65;;;;;;;18.94;48.42;101453.22;4416610;32;20512;-68
2022/01/11 03:37:16;;;;;;;7.18;4.87;;;;;;;19.28;47.63;101456.47;4416037;32;20087;-68
2022/01/11 03:39:42;;;;;;;6.72;4.15;;;;;;;19.43;47.23;101462.28;4415477;32;20474;-68
2022/01/11 03:42:07;;;;;;;7.80;4.15;;;;;;;19.37;47.52;101458.50;4416591;32;20034;-68
2022/01/11 03:44:33;;;;;;;7.18;4.37;;;;;;;19.18;47.89;101462.66;4415447;32;20045;-68
2022/01/11 03:47:00;;;;;;;8.95;4.97;;;;;;;19.25;47.73;101456.59;4415123;32;20069;-68
2022/01/11 03:49:26;;;;;;;8.68;4.78;;;;;;;19.44;47.40;101466.69;4415711;32;20094;-68
2022/01/11 03:51:52;;;;;;;7.15;4.28;;;;;;;19.47;47.28;101471.44;4416242;32;20376;-68
2022/01/11 03:54:26;;;;;;;6.82;4.35;;;;;;;19.54;47.12;101465.38;4416258;32;20046;-68
2022/01/11 03:56:53;;;;;;;7.40;4.37;;;;;;;19.62;46.94;101461.72;4416047;32;20170;-68
2022/01/11 03:59:20;;;;;;;6.20;3.35;;;;;;;19.52;46.55;101460.16;4415688;32;20045;-68
2022/01/11 04:01:47;;;;;;;4.97;2.83;;;;;;;19.34;47.50;101459.47;4413149;32;20115;-68
2022/01/11 04:04:14;;;;;;;4.47;3.03;;;;;;;19.37;47.23;101469.91;4414888;32;20104;-68
2022/01/11 04:06:40;;;;;;;4.25;2.78;;;;;;;19.35;47.46;101461.81;4416743;32;20030;-68
2022/01/11 04:09:08;;;;;;;6.62;2.95;;;;;;;19.20;47.98;101466.59;4415351;32;20089;-68
2022/01/11 04:11:34;;;;;;;5.00;3.00;;;;;;;19.32;48.06;101476.25;4414194;32;20042;-68
2022/01/11 04:14:01;;;;;;;5.40;3.15;;;;;;;19.06;48.73;101480.78;4415871;32;20077;-68
2022/01/11 04:16:27;;;;;;;5.12;3.03;;;;;;;19.32;47.95;101487.69;4416560;32;20065;-68
2022/01/11 04:18:53;;;;;;;4.47;2.67;;;;;;;19.43;47.90;101493.69;4418188;32;20053;-69
2022/01/11 04:21:19;;;;;;;5.75;2.78;;;;;;;19.44;47.90;101496.06;4414311;32;20108;-69
2022/01/11 04:23:45;;;;;;;4.62;2.87;;;;;;;19.61;47.62;101499.31;4415917;32;20030;-68
2022/01/11 04:26:10;;;;;;;4.82;3.08;;;;;;;19.74;47.29;101503.53;4418082;32;20049;-69
2022/01/11 04:28:36;;;;;;;4.75;3.03;;;;;;;19.79;47.00;101505.72;4417086;32;20033;-69
2022/01/11 04:31:03;;;;;;;5.15;3.00;;;;;;;19.92;46.48;101511.22;4417418;32;20093;-69
2022/01/11 04:33:30;;;;;;;6.30;3.37;;;;;;;20.05;46.38;101516.69;4409813;32;20107;-69
2022/01/11 04:35:58;;;;;;;6.57;3.50;;;;;;;20.23;46.09;101510.88;4411370;32;20097;-69
2022/01/11 04:38:27;;;;;;;6.43;3.53;;;;;;;20.27;45.59;101520.84;4419513;32;20094;-69
2022/01/11 04:40:53;;;;;;;6.87;4.12;;;;;;;20.39;45.42;101531.25;4418190;32;20085;-69
2022/01/11 04:43:19;;;;;;;8.48;4.07;;;;;;;20.24;45.36;101536.13;4415837;32;20510;-69
2022/01/11 04:45:45;;;;;;;9.15;5.03;;;;;;;20.26;45.30;101533.56;4418716;32;20026;-69
2022/01/11 04:48:10;;;;;;;7.55;4.95;;;;;;;20.24;45.27;101538.97;4415398;32;20037;-69
2022/01/11 04:50:37;;;;;;;7.57;4.32;;;;;;;20.30;44.91;101542.75;4419006;32;20387;-69
2022/01/11 04:53:03;;;;;;;6.55;3.80;;;;;;;20.41;44.94;101545.87;4414722;32;20038;-69
2022/01/11 04:55:31;;;;;;;5.60;3.70;;;;;;;20.25;45.04;101548.34;4416795;32;21184;-69
2022/01/11 04:57:58;;;;;;;6.07;3.58;;;;;;;20.27;44.63;101549.44;4416604;32;20184;-69
2022/01/11 05:00:24;;;;;;;8.98;4.03;;;;;;;20.16;45.01;101551.25;4416973;32;20049;-69
2022/01/11 05:02:50;;;;;;;9.23;4.20;;;;;;;20.16;44.96;101560.62;4415546;32;20485;-69
2022/01/11 05:05:15;;;;;;;7.20;3.95;;;;;;;19.88;44.87;101564.84;4416025;32;20166;-69
2022/01/11 05:07:44;;;;;;;9.15;4.70;;;;;;;19.97;44.99;101569.75;4413233;32;20076;-69
2022/01/11 05:10:10;;;;;;;7.62;4.55;;;;;;;20.18;45.34;101568.69;4417112;32;20509;-69
2022/01/11 05:12:38;;;;;;;9.60;4.20;;;;;;;19.93;45.32;101577.69;4417273;32;20099;-69
2022/01/11 05:15:07;;;;;;;7.10;4.37;;;;;;;20.03;45.39;101579.25;4419745;32;20061;-69
2022/01/11 05:17:32;;;;;;;8.23;4.30;;;;;;;20.19;44.98;101582.50;4417017;32;20205;-69
2022/01/11 05:19:59;;;;;;;7.97;4.55;;;;;;;19.88;45.32;101581.22;4421072;32;20045;-69
2022/01/11 05:22:25;;;;;;;10.25;4.57;;;;;;;19.80;45.75;101589.34;4414742;32;20130;-69
2022/01/11 05:24:50;;;;;;;7.75;4.60;;;;;;;19.79;45.51;101591.41;4417747;32;20111;-69
2022/01/11 05:27:16;;;;;;;8.13;4.20;;;;;;;19.83;45.78;101594.09;4416133;32;20520;-69
2022/01/11 05:29:42;;;;;;;9.73;4.85;;;;;;;19.87;45.80;101602.47;4422876;32;20057;-69
2022/01/11 05:32:08;;;;;;;8.10;4.50;;;;;;;19.88;45.55;101606.94;4418062;32;20122;-69
2022/01/11 05:34:34;;;;;;;7.07;3.62;;;;;;;19.96;45.55;101613.88;4418432;32;20077;-69
2022/01/11 05:37:00;;;;;;;4.87;2.17;;;;;;;19.94;45.36;101620.06;4418613;32;20033;-69
2022/01/11 05:39:25;;;;;;;8.00;3.17;;;;;;;19.79;45.63;101622.06;4421559;32;20063;-69
2022/01/11 05:41:51;;;;;;;6.35;3.60;;;;;;;19.91;45.01;101618.19;4422211;32;20062;-69
2022/01/11 05:44:17;;;;;;;7.95;3.50;;;;;;;19.97;45.23;101627.69;4417591;32;20038;-69
2022/01/11 05:46:43;;;;;;;8.38;3.90;;;;;;;19.85;44.70;101630.75;4417145;32;20073;-69
2022/01/11 05:49:08;;;;;;;10.63;3.50;;;;;;;19.98;45.04;101628.47;4421080;32;20077;-68
2022/01/11 05:51:34;;;;;;;6.15;3.58;;;;;;;19.98;44.88;101637.84;4420073;32;20070;-68
2022/01/11 05:54:00;;;;;;;6.35;3.58;;;;;;;19.95;44.95;101630.25;4417542;32;20073;-68
2022/01/11 05:56:26;;;;;;;6.78;3.80;;;;;;;20.03;44.80;101642.91;4419815;32;20037;-68
2022/01/11 05:58:52;;;;;;;6.93;4.12;;;;;;;20.01;44.66;101648.31;4417620;32;20069;-68
2022/01/11 06:01:18;;;;;;;8.43;4.60;;;;;;;20.01;44.58;101638.94;4417556;32;20030;-69
2022/01/11 06:03:44;;;;;;;7.68;4.20;;;;;;;19.97;44.75;101649.75;4417493;32;20080;-69
2022/01/11 06:06:10;;;;;;;9.02;4.12;;;;;;;20.00;44.84;101648.81;4415928;32;20037;-69
2022/01/11 06:08:36;;;;;;;9.68;4.50;;;;;;;20.07;44.51;101645.59;4417924;32;20101;-69
2022/01/11 06:11:03;;;;;;;9.98;4.30;;;;;;;20.01;44.33;101659.75;4416896;32;20097;-69
2022/01/11 06:13:29;;;;;;;7.75;3.62;;;;;;;20.02;44.57;101658.47;4420097;32;20045;-69
2022/01/11 06:15:55;;;;;;;8.05;3.70;;;;;;;20.03;44.53;101660.03;4416850;32;20543;-69
2022/01/11 06:18:21;;;;;;;10.00;3.30;;;;;;;20.09;44.24;101658.13;4417801;32;20426;-69
2022/01/11 06:20:47;;;;;;;5.97;3.20;;;;;;;20.00;44.44;101648.81;4414778;32;20038;-69
2022/01/11 06:23:13;;;;;;;7.97;3.28;;;;;;;20.06;44.41;101661.16;4418729;32;20340;-69
2022/01/11 06:25:39;;;;;;;9.38;3.85;;;;;;;20.04;44.17;101660.84;4419827;32;20501;-69
2022/01/11 06:28:05;;;;;;;6.18;2.95;;;;;;;19.98;43.98;101669.28;4418482;32;20081;-69
2022/01/11 06:30:30;;;;;;;6.70;2.60;;;;;;;19.95;43.92;101675.16;4414315;32;20392;-69
2022/01/11 06:32:56;;;;;;;9.63;2.78;;;;;;;19.95;44.14;101680.87;4418080;32;20168;-69
2022/01/11 06:35:23;;;;;;;7.15;2.80;;;;;;;20.00;43.79;101675.28;4421474;32;20116;-69
2022/01/11 06:37:49;;;;;;;4.55;2.37;;;;;;;20.08;43.55;101676.53;4419186;32;20354;-69
2022/01/11 06:40:18;;;;;;;4.35;1.90;;;;;;;20.04;43.52;101693.06;4417139;32;20392;-69
2022/01/11 06:42:45;;;;;;;4.90;1.77;;;;;;;20.10;43.49;101691.16;4419391;32;20050;-69
2022/01/11 06:45:11;;;;;;;8.93;2.67;;;;;;;20.09;43.54;101698.13;4415592;32;20695;-69
2022/01/11 06:47:37;;;;;;;8.07;2.65;;;;;;;19.99;43.47;101704.34;4418515;32;20463;-69
2022/01/11 06:50:04;;;;;;;6.82;2.30;;;;;;;19.93;43.59;101700.56;4417483;32;20103;-69
2022/01/11 06:52:29;;;;;;;8.27;2.05;;;;;;;19.99;43.81;101704.34;4416663;32;20106;-69
2022/01/11 06:54:55;;;;;;;7.50;2.35;;;;;;;19.85;43.72;101708.66;4415422;32;20038;-69
2022/01/11 06:57:21;;;;;;;9.68;2.50;;;;;;;19.79;43.87;101710.59;4416156;32;20478;-69
2022/01/11 06:59:47;;;;;;;7.60;2.75;;;;;;;19.77;43.75;101716.78;4414715;32;20069;-69
2022/01/11 07:02:13;;;;;;;11.52;5.12;;;;;;;19.91;43.96;101714.53;4417553;32;20453;-69
2022/01/11 07:04:38;;;;;;;11.43;4.03;;;;;;;19.91;44.04;101714.53;4419557;32;20379;-69
2022/01/11 07:07:05;;;;;;;6.03;2.12;;;;;;;20.00;43.56;101725.94;4416232;32;20064;-69
2022/01/11 07:09:31;;;;;;;4.65;2.08;;;;;;;20.01;43.68;101734.03;4417531;32;20060;-69
2022/01/11 07:11:57;;;;;;;7.85;1.98;;;;;;;20.08;43.67;101735.75;4415621;32;20034;-69
2022/01/11 07:14:23;;;;;;;6.12;2.25;;;;;;;19.93;43.69;101741.34;4416993;32;20486;-69
2022/01/11 07:16:49;;;;;;;9.20;1.75;;;;;;;20.04;43.35;101752.28;4416809;32;20064;-69
2022/01/11 07:19:16;;;;;;;8.55;1.83;;;;;;;19.91;43.16;101746.75;4418928;32;20085;-69
2022/01/11 07:21:44;;;;;;;7.20;1.58;;;;;;;20.09;42.55;101758.13;4417896;32;20128;-69
2022/01/11 07:24:12;;;;;;;9.07;1.60;;;;;;;19.94;42.58;101760.06;4415257;32;20072;-69
2022/01/11 07:26:38;;;;;;;7.20;1.60;;;;;;;20.04;42.36;101760.84;4417578;32;20073;-69
2022/01/11 07:29:05;;;;;;;7.55;2.75;;;;;;;19.91;42.89;101772.47;4417864;32;20108;-69
2022/01/11 07:31:32;;;;;;;13.25;2.97;;;;;;;19.96;42.95;101783.25;4419120;32;20067;-69
2022/01/11 07:33:58;;;;;;;9.65;2.30;;;;;;;20.08;42.84;101788.00;4419234;32;20076;-69
2022/01/11 07:36:24;;;;;;;13.23;3.25;;;;;;;19.96;43.32;101786.13;4409738;32;20416;-69
2022/01/11 07:38:51;;;;;;;7.72;3.05;;;;;;;20.00;43.08;101801.03;4409317;32;20534;-69
2022/01/11 07:41:17;;;;;;;8.88;3.80;;;;;;;20.07;42.85;101800.72;4414302;32;20033;-69
2022/01/11 07:43:43;;;;;;;13.40;4.35;;;;;;;20.22;42.92;101810.22;4408297;32;20091;-69
2022/01/11 07:46:10;;;;;;;16.17;3.20;;;;;;;20.01;43.21;101816.13;4416703;32;20093;-69
2022/01/11 07:48:35;;;;;;;14.30;4.28;;;;;;;20.11;43.15;101823.37;4414621;32;20069;-69
2022/01/11 07:51:02;;;;;;;11.68;3.97;;;;;;;20.01;43.32;101816.91;4411882;32;20060;-69
2022/01/11 07:53:27;;;;;;;10.88;3.80;;;;;;;19.86;43.55;101820.88;4410471;32;20033;-69
2022/01/11 07:55:53;;;;;;;18.02;4.12;;;;;;;19.87;43.51;101823.25;4407220;32;20074;-69
2022/01/11 07:58:19;;;;;;;10.20;4.50;;;;;;;19.74;43.68;101837.72;4410969;32;20073;-69
2022/01/11 08:00:45;;;;;;;11.93;4.50;;;;;;;19.73;43.56;101847.53;4407432;32;20077;-69
2022/01/11 08:03:11;;;;;;;13.18;4.85;;;;;;;19.81;43.67;101853.75;4407177;32;20099;-69
2022/01/11 08:05:37;;;;;;;11.65;4.28;;;;;;;19.91;43.65;101848.81;4405538;32;20137;-69
2022/01/11 08:08:03;;;;;;;10.32;4.80;;;;;;;19.89;43.67;101863.59;4408116;32;20150;-69
2022/01/11 08:10:29;;;;;;;14.85;4.95;;;;;;;19.91;43.81;101863.87;4407032;32;20327;-69
2022/01/11 08:12:55;;;;;;;13.18;5.47;;;;;;;19.85;43.88;101871.50;4408287;32;20071;-69
2022/01/11 08:15:21;;;;;;;12.35;4.47;;;;;;;19.82;43.68;101872.44;4411436;32;20569;-68
2022/01/11 08:17:47;;;;;;;14.80;5.65;;;;;;;19.93;43.65;101878.50;4413059;32;21044;-70
2022/01/11 08:20:13;;;;;;;11.27;4.80;;;;;;;19.88;43.67;101875.50;4407652;32;20169;-68
2022/01/11 08:22:40;;;;;;;14.15;5.32;;;;;;;19.95;43.66;101878.84;4409499;32;20700;-68
2022/01/11 08:25:06;;;;;;;13.70;4.35;;;;;;;19.91;43.44;101883.12;4405466;32;20135;-69
2022/01/11 08:27:33;;;;;;;18.37;5.12;;;;;;;20.01;43.39;101887.56;4408731;32;20141;-69
2022/01/11 08:30:00;;;;;;;17.52;5.05;;;;;;;19.96;43.45;101894.69;4407993;32;20045;-69
2022/01/11 08:32:26;;;;;;;13.55;5.28;;;;;;;19.89;43.45;101902.78;4407521;32;20037;-69
2022/01/11 08:34:52;;;;;;;21.27;6.37;;;;;;;19.85;43.72;101905.00;4404997;32;20203;-69
2022/01/11 08:37:18;;;;;;;14.38;4.97;;;;;;;19.68;43.97;101913.88;4408184;32;20096;-69
2022/01/11 08:39:44;;;;;;;21.12;7.25;;;;;;;19.89;43.70;101922.78;4403977;32;20220;-69
2022/01/11 08:42:12;;;;;;;15.82;6.12;;;;;;;19.82;44.00;101918.16;4404582;32;20067;-68
2022/01/11 08:44:39;;;;;;;19.10;6.35;;;;;;;19.71;43.72;101923.56;4409065;32;20080;-69
2022/01/11 08:47:05;;;;;;;14.45;5.82;;;;;;;19.76;44.08;101925.81;4408759;32;20057;-69
2022/01/11 08:49:31;;;;;;;16.98;6.07;;;;;;;19.70;44.14;101919.13;4408772;32;20399;-68
2022/01/11 08:51:57;;;;;;;17.37;6.65;;;;;;;19.75;43.65;101927.84;4410705;32;20069;-69
2022/01/11 08:54:24;;;;;;;13.95;5.25;;;;;;;19.70;43.58;101927.69;4410457;32;20450;-69
2022/01/11 08:56:53;;;;;;;14.18;4.75;;;;;;;19.75;43.37;101942.13;4413277;32;20410;-69
2022/01/11 08:59:19;;;;;;;18.77;4.47;;;;;;;20.02;42.85;101932.81;4412636;32;20435;-68
2022/01/11 09:01:45;;;;;;;19.67;4.55;;;;;;;19.83;42.83;101933.25;4411066;32;20073;-69
2022/01/11 09:04:11;;;;;;;21.67;4.40;;;;;;;19.68;42.10;101942.44;4411737;32;20046;-69
2022/01/11 09:06:37;;;;;;;20.67;4.25;;;;;;;19.71;41.53;101946.41;4413490;32;20077;-69
2022/01/11 09:09:04;;;;;;;15.77;4.75;;;;;;;19.70;41.17;101951.31;4410947;32;20082;-69
2022/01/11 09:11:30;;;;;;;19.40;4.78;;;;;;;19.90;41.01;101956.59;4412635;32;20077;-69
2022/01/11 09:13:56;;;;;;;16.85;4.53;;;;;;;19.50;41.83;101953.81;4414497;32;20061;-69
2022/01/11 09:16:24;;;;;;;22.83;4.97;;;;;;;19.73;41.18;101955.31;4413752;32;20069;-69
2022/01/11 09:18:50;;;;;;;17.17;4.28;;;;;;;19.51;41.82;101958.25;4410160;32;20081;-69
2022/01/11 09:21:20;;;;;;;20.08;4.18;;;;;;;19.60;41.34;101960.34;4410527;32;20424;-70
2022/01/11 09:23:46;;;;;;;22.73;4.60;;;;;;;19.75;41.17;101959.28;4411004;32;20193;-69
2022/01/11 09:26:11;;;;;;;23.87;5.10;;;;;;;19.83;41.10;101957.69;4413981;32;20081;-69
2022/01/11 09:28:37;;;;;;;19.67;4.00;;;;;;;19.90;41.12;101970.06;4413852;32;20451;-69
2022/01/11 09:31:03;;;;;;;20.45;4.53;;;;;;;19.90;40.95;101975.78;4411056;32;20170;-69
2022/01/11 09:33:29;;;;;;;22.42;4.50;;;;;;;20.01;40.85;101976.13;4411038;32;20057;-69
2022/01/11 09:35:54;;;;;;;22.65;3.70;;;;;;;19.71;41.11;101978.63;4409971;32;20352;-69
2022/01/11 09:38:22;;;;;;;24.63;5.10;;;;;;;19.66;40.52;101979.25;4411458;32;20137;-69
2022/01/11 09:40:52;;;;;;;22.05;4.93;;;;;;;19.64;41.07;101986.69;4409171;32;20057;-69
2022/01/11 09:43:21;;;;;;;23.85;4.12;;;;;;;20.00;40.63;101988.84;4412925;32;20070;-69
2022/01/11 09:45:48;;;;;;;20.80;4.62;;;;;;;19.58;40.24;101985.72;4415964;32;20202;-71
2022/01/11 09:48:17;;;;;;;22.48;5.15;;;;;;;19.58;40.78;101994.28;4410393;32;20081;-70
2022/01/11 09:50:43;;;;;;;27.33;4.50;;;;;;;19.57;40.44;102001.25;4406565;32;20108;-69
2022/01/11 09:53:09;;;;;;;18.08;4.43;;;;;;;19.61;40.41;101999.84;4410875;32;20052;-70
2022/01/11 09:55:36;;;;;;;19.90;4.22;;;;;;;19.74;39.93;102006.25;4412237;32;20515;-70
2022/01/11 09:58:03;;;;;;;22.20;4.82;;;;;;;19.92;39.93;102007.56;4413131;32;20094;-70
2022/01/11 10:00:29;;;;;;;21.85;4.80;;;;;;;20.00;40.00;102015.34;4404344;32;20403;-70
2022/01/11 10:02:55;;;;;;;27.62;5.37;;;;;;;19.61;40.01;102007.62;4414159;32;20370;-70
2022/01/11 10:05:21;;;;;;;30.77;4.60;;;;;;;19.66;39.71;102009.84;4414227;32;20080;-71
2022/01/11 10:07:47;;;;;;;25.62;5.47;;;;;;;19.71;39.98;102012.09;4411167;32;20103;-71
2022/01/11 10:10:17;;;;;;;26.90;5.70;;;;;;;19.51;40.27;102015.38;4412012;32;20247;-71
2022/01/11 10:15:28;;;;;;;22.85;5.15;;;;;;;20.15;38.70;102030.66;3973707;32;15022187;-71
2022/01/11 10:17:54;;;;;;;23.35;5.20;;;;;;;20.15;38.70;102030.66;4421917;32;20069;-71
2022/01/11 10:20:22;;;;;;;28.20;5.40;;;;;;;19.48;39.98;102036.28;4421662;32;20369;-70
2022/01/11 10:25:42;;;;;;;24.42;4.45;;;;;;;20.19;38.90;102039.84;3981879;31;15015309;-70
2022/01/11 10:28:08;;;;;;;21.45;5.00;;;;;;;20.19;38.90;102039.84;4428151;32;20064;-70
2022/01/11 10:30:36;;;;;;;26.30;5.15;;;;;;;19.52;39.84;102041.88;4425598;32;20084;-70
2022/01/11 10:33:06;;;;;;;28.00;5.22;;;;;;;19.55;39.91;102043.78;4427340;32;20642;-70
2022/01/11 10:35:42;;;;;;;21.67;4.18;;;;;;;19.66;38.98;102052.69;4427290;32;20093;-71
2022/01/11 10:38:10;;;;;;;17.67;4.28;;;;;;;19.59;39.45;102047.28;4425858;32;20172;-70
2022/01/11 10:40:40;;;;;;;17.17;4.22;;;;;;;19.44;38.68;102047.06;4424762;32;20134;-70
2022/01/11 10:43:09;;;;;;;26.37;3.90;;;;;;;19.61;38.46;102056.97;4424012;32;20500;-69
2022/01/11 10:45:37;;;;;;;17.60;3.70;;;;;;;19.92;37.69;102047.56;4424588;32;20037;-70
2022/01/11 10:48:10;;;;;;;23.08;3.95;;;;;;;19.93;38.08;102052.00;4426614;32;20088;-69
2022/01/11 10:50:40;;;;;;;21.20;4.12;;;;;;;20.01;37.50;102059.00;4427339;32;20081;-70
2022/01/11 10:53:20;;;;;;;22.55;4.03;;;;;;;20.08;37.61;102068.09;4425865;32;20461;-70
2022/01/11 10:55:50;;;;;;;20.77;3.80;;;;;;;20.11;37.27;102060.63;4426019;32;20173;-70
2022/01/11 10:58:18;;;;;;;14.90;4.03;;;;;;;20.30;36.76;102057.34;4426077;32;20075;-70
2022/01/11 11:00:47;;;;;;;15.27;3.92;;;;;;;20.20;36.66;102057.81;4426363;32;20503;-70
2022/01/11 11:03:15;;;;;;;19.27;4.43;;;;;;;20.18;36.82;102055.44;4420424;32;20873;-70
2022/01/11 11:08:31;;;;;;;20.30;4.07;;;;;;;20.89;36.48;102071.03;3980796;31;15075637;-70
2022/01/11 11:13:36;;;;;;;23.92;3.55;;;;;;;20.65;35.30;102092.19;3943915;32;15736524;-67
2022/01/11 11:18:58;;;;;;;23.15;3.35;;;;;;;20.31;35.22;102084.66;3968025;32;15035466;-70
2022/01/11 11:21:32;;;;;;;20.27;4.50;;;;;;;20.47;35.09;102083.59;4415345;32;20103;-69
2022/01/11 11:24:11;;;;;;;22.77;3.70;;;;;;;20.59;36.00;102089.16;4411763;32;20075;-68
2022/01/11 11:26:40;;;;;;;19.70;4.18;;;;;;;20.82;34.96;102091.41;4415783;32;20394;-69
2022/01/11 11:29:09;;;;;;;19.85;3.25;;;;;;;20.61;35.05;102098.06;4415440;32;20115;-68
2022/01/11 11:31:36;;;;;;;15.73;3.00;;;;;;;20.57;34.84;102100.28;4410487;32;20099;-69
2022/01/11 11:34:03;;;;;;;13.60;3.42;;;;;;;20.62;34.81;102096.78;4417981;32;20430;-71